Time;durP1;ratioP1;P1;durP2;ratioP2;P2;SDS_P1;SDS_P2;PMS_P1;PMS_P2;Temp;Humidity;BMP_temperature;BMP_pressure;BME280_temperature;BME280_humidity;BME280_pressure;Samples;Min_cycle;Max_cycle;Signal;HPM_P1;HPM_P2
2023/10/21 00:00:37;;;;;;;25.20;22.80;;;;;;;13.00;100.00;98963.96;88486;273;137109;-67
2023/10/21 00:02:39;;;;;;;23.80;21.50;;;;;;;12.96;100.00;98959.39;88505;273;24017;-69
2023/10/21 00:04:40;;;;;;;26.60;23.80;;;;;;;12.93;100.00;98958.46;88356;273;137054;-67
2023/10/21 00:06:42;;;;;;;29.80;26.80;;;;;;;12.92;100.00;98960.80;88692;277;22524;-69
2023/10/21 00:08:44;;;;;;;31.20;27.10;;;;;;;12.90;100.00;98956.95;88454;280;137278;-68
2023/10/21 00:10:46;;;;;;;32.80;27.50;;;;;;;12.91;100.00;98958.39;88548;277;25334;-68
2023/10/21 00:12:48;;;;;;;31.80;28.30;;;;;;;12.93;100.00;98956.11;88381;277;137458;-69
2023/10/21 00:14:50;;;;;;;31.70;28.10;;;;;;;12.95;100.00;98952.40;88655;273;22530;-68
2023/10/21 00:16:52;;;;;;;39.30;31.20;;;;;;;12.96;100.00;98954.73;88401;273;137496;-70
2023/10/21 00:18:54;;;;;;;31.10;27.80;;;;;;;12.97;100.00;98960.80;88547;273;22527;-67
2023/10/21 00:20:56;;;;;;;34.30;27.80;;;;;;;12.98;100.00;98965.53;88509;273;138395;-67
2023/10/21 00:22:58;;;;;;;31.00;27.10;;;;;;;12.99;100.00;98976.03;88567;273;25080;-68
2023/10/21 00:25:04;;;;;;;30.40;27.20;;;;;;;13.00;100.00;98984.86;88506;277;137346;-69
2023/10/21 00:27:06;;;;;;;36.90;27.80;;;;;;;13.03;100.00;98974.07;88744;277;24057;-65
2023/10/21 00:29:07;;;;;;;32.40;29.00;;;;;;;13.06;100.00;98961.17;88493;273;138321;-67
2023/10/21 00:31:09;;;;;;;31.40;28.00;;;;;;;13.08;100.00;98967.67;88576;278;24037;-67
2023/10/21 00:33:13;;;;;;;31.60;28.50;;;;;;;13.09;100.00;98961.35;88455;280;137176;-66
2023/10/21 00:35:16;;;;;;;34.80;27.90;;;;;;;13.08;100.00;98976.52;88607;273;22628;-67
2023/10/21 00:37:17;;;;;;;30.50;27.20;;;;;;;13.09;100.00;98969.38;88426;273;137229;-66
2023/10/21 00:39:19;;;;;;;30.80;27.60;;;;;;;13.11;100.00;98954.97;88579;280;22542;-68
2023/10/21 00:41:21;;;;;;;31.00;27.70;;;;;;;13.13;100.00;98935.83;88555;278;137152;-67
2023/10/21 00:43:39;;;;;;;30.60;27.40;;;;;;;13.13;100.00;98933.27;88462;274;22890;-67
2023/10/21 00:45:41;;;;;;;30.20;26.90;;;;;;;13.12;100.00;98938.48;88474;282;136708;-64
2023/10/21 00:47:44;;;;;;;30.30;26.90;;;;;;;13.11;100.00;98943.61;88548;281;22549;-65
2023/10/21 00:49:46;;;;;;;34.20;28.10;;;;;;;13.09;100.00;98949.42;88582;280;137350;-68
2023/10/21 00:51:49;;;;;;;30.80;26.20;;;;;;;13.08;100.00;98947.34;88583;280;22627;-67
2023/10/21 00:53:52;;;;;;;29.80;26.70;;;;;;;13.09;100.00;98952.88;88607;272;137020;-69
2023/10/21 00:55:54;;;;;;;30.90;27.60;;;;;;;13.10;100.00;98954.66;89100;279;22540;-64
2023/10/21 00:57:55;;;;;;;30.50;26.90;;;;;;;13.11;100.00;98950.61;88449;280;136856;-66
2023/10/21 00:59:57;;;;;;;30.70;27.40;;;;;;;13.08;100.00;98947.09;88548;278;25329;-64
2023/10/21 01:01:59;;;;;;;31.20;26.30;;;;;;;13.12;100.00;98950.38;88411;281;136707;-67
2023/10/21 01:04:03;;;;;;;28.60;25.60;;;;;;;13.12;100.00;98952.09;88637;273;22532;-63
2023/10/21 01:06:05;;;;;;;31.90;26.30;;;;;;;13.12;100.00;98950.80;88659;280;22531;-64
2023/10/21 01:08:07;;;;;;;27.60;24.10;;;;;;;13.10;100.00;98948.78;88505;280;137871;-64
2023/10/21 01:10:09;;;;;;;30.50;24.20;;;;;;;13.06;100.00;98948.82;88576;273;22551;-67
2023/10/21 01:12:11;;;;;;;27.40;24.40;;;;;;;13.01;100.00;98949.16;88540;273;137508;-71
2023/10/21 01:14:12;;;;;;;29.40;26.40;;;;;;;13.00;100.00;98955.07;88542;272;22952;-66
2023/10/21 01:16:14;;;;;;;30.60;26.50;;;;;;;12.98;100.00;98959.22;88414;274;137270;-66
2023/10/21 01:18:16;;;;;;;31.40;25.90;;;;;;;13.00;100.00;98965.77;88570;280;22857;-67
2023/10/21 01:20:18;;;;;;;30.10;26.10;;;;;;;13.01;100.00;98969.69;88457;280;138933;-65
2023/10/21 01:22:20;;;;;;;28.70;25.70;;;;;;;13.03;100.00;98967.48;88569;282;27324;-68
2023/10/21 01:24:23;;;;;;;29.60;26.30;;;;;;;13.04;100.00;98968.86;88456;277;137327;-67
2023/10/21 01:26:25;;;;;;;29.80;26.60;;;;;;;13.06;100.00;98974.87;88662;280;22608;-67
2023/10/21 01:28:28;;;;;;;29.60;26.50;;;;;;;13.06;100.00;98976.38;88471;283;138748;-66
2023/10/21 01:30:31;;;;;;;35.80;25.90;;;;;;;13.09;100.00;98980.77;88629;280;24164;-69
2023/10/21 01:32:33;;;;;;;28.80;25.70;;;;;;;13.12;100.00;98979.48;88499;282;137089;-69
2023/10/21 01:34:35;;;;;;;30.40;25.10;;;;;;;13.12;100.00;98980.83;88617;274;25552;-70
2023/10/21 01:36:36;;;;;;;29.50;25.90;;;;;;;13.14;100.00;98986.10;88504;280;137151;-66
2023/10/21 01:38:38;;;;;;;27.00;24.20;;;;;;;13.14;100.00;98983.55;88620;281;25229;-68
2023/10/21 01:40:41;;;;;;;29.90;26.70;;;;;;;13.15;100.00;98981.64;88529;280;137326;-68
2023/10/21 01:42:43;;;;;;;29.20;25.70;;;;;;;13.16;100.00;98984.28;88668;273;22523;-67
2023/10/21 01:44:46;;;;;;;29.00;25.00;;;;;;;13.18;100.00;98989.55;88528;280;137638;-69
2023/10/21 01:46:48;;;;;;;29.20;25.70;;;;;;;13.21;100.00;98987.79;88422;273;24020;-68
2023/10/21 01:48:52;;;;;;;29.70;26.40;;;;;;;13.22;100.00;98987.13;88353;280;137229;-68
2023/10/21 01:51:04;;;;;;;30.50;25.00;;;;;;;13.23;100.00;98993.35;88519;273;22533;-69
2023/10/21 01:53:07;;;;;;;33.00;26.20;;;;;;;13.23;100.00;98994.79;88485;280;137209;-65
2023/10/21 01:55:09;;;;;;;30.00;26.10;;;;;;;13.23;100.00;98998.96;88586;279;22532;-67
2023/10/21 01:57:11;;;;;;;29.80;24.70;;;;;;;13.24;100.00;98993.95;88565;279;137591;-69
2023/10/21 01:59:15;;;;;;;30.80;26.20;;;;;;;13.25;100.00;98992.79;88664;280;22631;-68
2023/10/21 02:01:17;;;;;;;29.40;26.10;;;;;;;13.24;100.00;98988.71;88420;281;137442;-68
2023/10/21 02:03:19;;;;;;;33.60;26.80;;;;;;;13.24;100.00;98990.09;88555;281;22541;-68
2023/10/21 02:05:23;;;;;;;28.70;25.60;;;;;;;13.24;100.00;98992.14;88428;274;137415;-68
2023/10/21 02:07:25;;;;;;;34.30;25.70;;;;;;;13.25;100.00;98993.16;88657;273;22541;-68
2023/10/21 02:09:27;;;;;;;32.60;26.60;;;;;;;13.26;100.00;98990.83;88372;276;138500;-69
2023/10/21 02:11:29;;;;;;;37.70;26.20;;;;;;;13.25;100.00;98996.05;88521;276;22549;-68
2023/10/21 02:13:30;;;;;;;29.70;26.50;;;;;;;13.23;100.00;98997.84;88372;276;138306;-68
2023/10/21 02:15:36;;;;;;;33.60;27.90;;;;;;;13.19;100.00;98996.59;88551;280;22580;-67
2023/10/21 02:17:39;;;;;;;30.70;26.70;;;;;;;13.15;100.00;99001.89;88472;280;138734;-68
2023/10/21 02:19:41;;;;;;;36.90;27.00;;;;;;;13.11;100.00;99006.91;88745;272;22535;-67
2023/10/21 02:21:43;;;;;;;40.80;27.30;;;;;;;13.08;100.00;99002.20;88543;280;137528;-67
2023/10/21 02:23:45;;;;;;;33.00;27.90;;;;;;;13.07;100.00;99003.66;88653;280;22757;-68
2023/10/21 02:25:59;;;;;;;36.80;28.20;;;;;;;13.05;100.00;99001.46;88426;274;136810;-67
2023/10/21 02:28:01;;;;;;;35.70;29.10;;;;;;;13.04;100.00;99003.63;88515;278;24052;-67
2023/10/21 02:30:04;;;;;;;36.90;29.50;;;;;;;13.03;100.00;99001.30;88504;273;137779;-67
2023/10/21 02:32:07;;;;;;;38.50;28.80;;;;;;;13.03;100.00;99003.56;88554;273;139003;-69
2023/10/21 02:34:09;;;;;;;46.90;29.30;;;;;;;13.01;100.00;99001.96;88609;273;22618;-69
2023/10/21 02:36:11;;;;;;;38.00;29.30;;;;;;;12.98;100.00;99009.18;88516;273;139251;-69
2023/10/21 02:38:12;;;;;;;37.00;29.20;;;;;;;12.96;100.00;99008.85;88521;280;25252;-66
2023/10/21 02:40:17;;;;;;;45.10;28.80;;;;;;;12.92;100.00;99012.10;88470;281;137759;-70
2023/10/21 02:42:20;;;;;;;51.10;28.90;;;;;;;12.87;100.00;99010.34;88592;280;25211;-68
2023/10/21 02:44:22;;;;;;;41.60;29.40;;;;;;;12.83;100.00;99008.06;88468;273;137742;-68
2023/10/21 02:46:23;;;;;;;39.10;28.80;;;;;;;12.82;100.00;99012.10;88652;280;22595;-68
2023/10/21 02:48:25;;;;;;;41.60;30.30;;;;;;;12.82;100.00;99018.14;88475;273;138700;-68
2023/10/21 02:50:27;;;;;;;46.30;30.60;;;;;;;12.82;100.00;99021.63;88642;280;25169;-67
2023/10/21 02:52:29;;;;;;;41.10;30.60;;;;;;;12.83;100.00;99022.98;88486;277;137376;-64
2023/10/21 02:54:30;;;;;;;37.20;29.50;;;;;;;12.75;100.00;99019.61;88596;281;24017;-66
2023/10/21 02:56:33;;;;;;;41.00;29.50;;;;;;;12.83;100.00;99030.53;88401;274;138471;-68
2023/10/21 02:58:37;;;;;;;44.90;30.80;;;;;;;12.74;100.00;99019.09;88516;272;22532;-68
2023/10/21 03:00:40;;;;;;;47.70;29.60;;;;;;;12.83;100.00;99038.17;88336;280;138949;-67
2023/10/21 03:02:42;;;;;;;46.70;30.30;;;;;;;12.84;100.00;99036.32;88502;273;22557;-68
2023/10/21 03:04:44;;;;;;;36.70;28.50;;;;;;;12.85;100.00;99030.95;88455;273;138648;-70
2023/10/21 03:06:46;;;;;;;41.00;29.80;;;;;;;12.87;100.00;99030.23;88570;280;22541;-65
2023/10/21 03:08:48;;;;;;;39.80;29.30;;;;;;;12.88;100.00;99025.60;88243;282;136934;-68
2023/10/21 03:10:50;;;;;;;39.90;29.70;;;;;;;12.88;100.00;99024.95;88658;274;23631;-68
2023/10/21 03:12:52;;;;;;;43.80;30.90;;;;;;;12.87;100.00;99026.05;88476;278;138622;-67
2023/10/21 03:14:55;;;;;;;38.20;28.70;;;;;;;12.85;100.00;99031.25;88610;280;24357;-68
2023/10/21 03:16:57;;;;;;;53.00;31.00;;;;;;;12.83;100.00;99034.90;88459;280;138682;-67
2023/10/21 03:21:25;;;;;;;43.70;30.00;;;;;;;12.83;100.00;99043.83;86770;305;603418;-66
2023/10/21 03:23:28;;;;;;;43.00;29.40;;;;;;;12.84;100.00;99046.97;87835;290;22573;-70
2023/10/21 03:25:30;;;;;;;50.50;29.70;;;;;;;12.85;100.00;99045.76;87686;294;137263;-69
2023/10/21 03:27:32;;;;;;;49.70;32.60;;;;;;;12.87;100.00;99044.41;88124;285;22555;-66
2023/10/21 03:29:34;;;;;;;42.90;27.40;;;;;;;12.85;100.00;99055.55;88070;288;138105;-67
2023/10/21 03:31:36;;;;;;;45.80;29.80;;;;;;;12.85;100.00;99064.69;88064;284;22867;-66
2023/10/21 03:33:38;;;;;;;47.90;29.30;;;;;;;12.87;100.00;99070.71;88121;281;138153;-68
2023/10/21 03:35:56;;;;;;;48.70;29.90;;;;;;;12.86;100.00;99070.27;87812;278;662029;-67
2023/10/21 03:37:59;;;;;;;44.30;29.20;;;;;;;12.88;100.00;99068.54;88197;283;136930;-69
2023/10/21 03:40:05;;;;;;;43.20;31.40;;;;;;;12.89;100.00;99069.31;88229;279;22625;-65
2023/10/21 03:42:08;;;;;;;46.10;30.00;;;;;;;12.89;100.00;99064.12;88321;285;22603;-64
2023/10/21 03:44:10;;;;;;;40.30;27.20;;;;;;;12.88;100.00;99061.69;88222;278;136989;-62
2023/10/21 03:46:14;;;;;;;35.30;25.70;;;;;;;12.88;100.00;99077.64;88120;284;22606;-64
2023/10/21 03:48:16;;;;;;;34.30;26.00;;;;;;;12.88;100.00;99086.02;88116;286;137141;-66
2023/10/21 03:50:18;;;;;;;33.00;25.40;;;;;;;12.85;100.00;99093.73;88164;283;25124;-62
2023/10/21 03:52:21;;;;;;;32.60;24.10;;;;;;;12.84;100.00;99093.34;88040;286;139739;-66
2023/10/21 03:54:22;;;;;;;27.80;22.70;;;;;;;12.84;100.00;99080.71;88033;279;24027;-65
2023/10/21 03:56:25;;;;;;;29.90;22.20;;;;;;;12.81;100.00;99082.73;88185;282;138612;-68
2023/10/21 03:58:28;;;;;;;30.10;21.80;;;;;;;12.77;100.00;99087.83;88054;279;25223;-66
2023/10/21 04:00:31;;;;;;;35.70;21.00;;;;;;;12.69;100.00;99087.80;87933;285;136748;-68
2023/10/21 04:02:33;;;;;;;34.00;22.00;;;;;;;12.61;100.00;99094.58;87899;279;25248;-67
2023/10/21 04:04:35;;;;;;;29.10;20.20;;;;;;;12.56;100.00;99095.58;87898;279;136789;-66
2023/10/21 04:06:37;;;;;;;31.30;19.20;;;;;;;12.54;100.00;99093.29;89194;283;22920;-67
2023/10/21 04:08:39;;;;;;;23.80;18.70;;;;;;;12.50;100.00;99099.11;87870;287;137013;-67
2023/10/21 04:10:41;;;;;;;27.10;20.60;;;;;;;12.45;100.00;99101.15;87960;284;22613;-67
2023/10/21 04:12:43;;;;;;;30.70;21.10;;;;;;;12.40;100.00;99104.04;87926;283;138514;-69
2023/10/21 04:14:45;;;;;;;28.30;19.70;;;;;;;12.38;100.00;99108.84;88032;279;24173;-68
2023/10/21 04:16:47;;;;;;;30.10;20.20;;;;;;;12.37;100.00;99111.59;87877;281;138149;-65
2023/10/21 04:18:49;;;;;;;30.00;20.50;;;;;;;12.33;100.00;99113.36;87964;281;22541;-67
2023/10/21 04:20:51;;;;;;;26.90;20.00;;;;;;;12.29;100.00;99107.54;87957;286;139075;-67
2023/10/21 04:22:53;;;;;;;27.80;19.60;;;;;;;12.24;100.00;99103.84;88139;286;22838;-66
2023/10/21 04:24:55;;;;;;;36.20;22.30;;;;;;;12.20;100.00;99096.86;88076;278;138304;-66
2023/10/21 04:26:57;;;;;;;33.50;21.30;;;;;;;12.20;100.00;99096.30;88121;278;22548;-67
2023/10/21 04:28:59;;;;;;;34.00;18.70;;;;;;;12.19;100.00;99097.54;88016;279;137824;-66
2023/10/21 04:31:00;;;;;;;25.70;19.00;;;;;;;12.02;100.00;99068.78;88076;279;24478;-65
2023/10/21 04:33:04;;;;;;;27.70;17.70;;;;;;;12.20;100.00;99096.10;88110;279;138521;-67
2023/10/21 04:35:08;;;;;;;31.90;19.10;;;;;;;12.18;100.00;99099.73;88249;279;22540;-68
2023/10/21 04:37:10;;;;;;;25.40;17.90;;;;;;;12.15;100.00;99104.59;87972;279;137202;-64
2023/10/21 04:39:14;;;;;;;23.60;16.70;;;;;;;12.14;100.00;99109.30;88108;283;23711;-67
2023/10/21 04:41:16;;;;;;;31.50;17.60;;;;;;;12.12;100.00;99113.36;87992;279;137180;-66
2023/10/21 04:43:18;;;;;;;28.30;15.90;;;;;;;12.08;100.00;99119.00;88099;286;25282;-66
2023/10/21 04:45:20;;;;;;;26.60;14.40;;;;;;;12.04;100.00;99121.52;88003;286;136979;-68
2023/10/21 04:47:22;;;;;;;34.00;18.10;;;;;;;12.01;100.00;99122.23;88048;286;22776;-64
2023/10/21 04:49:24;;;;;;;25.90;17.40;;;;;;;11.98;100.00;99129.58;88099;279;136926;-67
2023/10/21 04:51:26;;;;;;;18.60;14.60;;;;;;;11.96;100.00;99131.50;88172;286;25242;-66
2023/10/21 04:53:28;;;;;;;20.40;14.80;;;;;;;11.95;100.00;99135.41;87972;283;137039;-65
2023/10/21 04:55:30;;;;;;;19.00;13.10;;;;;;;11.91;100.00;99138.51;88326;286;22668;-65
2023/10/21 04:57:32;;;;;;;14.90;11.90;;;;;;;11.84;100.00;99139.92;87978;279;137017;-66
2023/10/21 04:59:33;;;;;;;15.60;12.50;;;;;;;11.80;100.00;99152.34;88087;284;25790;-65
2023/10/21 05:01:35;;;;;;;14.00;11.50;;;;;;;11.74;100.00;99151.64;88105;286;136969;-67
2023/10/21 05:03:37;;;;;;;18.00;12.00;;;;;;;11.67;100.00;99156.22;88146;286;24055;-67
2023/10/21 05:05:39;;;;;;;14.60;11.70;;;;;;;11.64;100.00;99162.96;88017;279;138300;-66
2023/10/21 05:07:44;;;;;;;11.90;10.50;;;;;;;11.65;100.00;99163.36;87957;282;22898;-66
2023/10/21 05:09:46;;;;;;;14.80;10.10;;;;;;;11.61;100.00;99167.30;87866;284;136995;-66
2023/10/21 05:11:47;;;;;;;10.20;8.90;;;;;;;11.51;100.00;99176.63;88023;283;25276;-70
2023/10/21 05:13:49;;;;;;;9.80;8.30;;;;;;;11.42;100.00;99178.41;88024;278;136877;-66
2023/10/21 05:15:51;;;;;;;11.60;8.70;;;;;;;11.34;100.00;99188.80;88067;278;23871;-68
2023/10/21 05:17:53;;;;;;;9.40;8.10;;;;;;;11.28;100.00;99191.45;87912;283;137158;-69
2023/10/21 05:19:55;;;;;;;10.00;7.90;;;;;;;11.21;100.00;99196.94;88112;282;24064;-69
2023/10/21 05:21:56;;;;;;;14.60;9.20;;;;;;;11.08;100.00;99189.39;87936;279;136805;-68
2023/10/21 05:23:58;;;;;;;13.30;8.20;;;;;;;11.16;100.00;99208.72;87969;286;24928;-66
2023/10/21 05:26:00;;;;;;;10.80;9.20;;;;;;;11.13;100.00;99210.17;88124;278;137993;-65
2023/10/21 05:28:03;;;;;;;10.60;8.60;;;;;;;11.13;100.00;99215.67;88000;278;138024;-62
2023/10/21 05:30:05;;;;;;;9.20;8.30;;;;;;;11.13;100.00;99222.08;88146;279;23913;-63
2023/10/21 05:32:07;;;;;;;10.90;8.10;;;;;;;11.12;100.00;99225.88;87905;280;138056;-67
2023/10/21 05:34:09;;;;;;;14.60;9.00;;;;;;;11.06;100.00;99223.77;88102;279;23873;-65
2023/10/21 05:36:11;;;;;;;9.00;8.20;;;;;;;11.06;100.00;99230.60;88015;279;137114;-66
2023/10/21 05:38:13;;;;;;;8.30;7.50;;;;;;;11.02;100.00;99224.76;88068;283;22536;-68
2023/10/21 05:40:15;;;;;;;8.70;7.80;;;;;;;10.98;100.00;99227.88;88021;283;136973;-67
2023/10/21 05:42:16;;;;;;;14.10;8.90;;;;;;;10.94;100.00;99228.73;88029;279;22547;-68
2023/10/21 05:44:18;;;;;;;9.90;7.70;;;;;;;10.94;100.00;99231.27;87851;280;138585;-69
2023/10/21 05:46:34;;;;;;;;;;;;;;;10.93;100.00;99233.90;88145;279;22524;-65
2023/10/21 05:48:36;;;;;;;8.90;7.40;;;;;;;10.86;100.00;99238.84;87912;280;122817;-62
2023/10/21 05:50:38;;;;;;;12.70;8.80;;;;;;;10.84;100.00;99246.43;88167;283;22544;-65
2023/10/21 05:52:41;;;;;;;10.50;9.30;;;;;;;10.80;100.00;99252.02;88168;279;138748;-72
2023/10/21 05:54:44;;;;;;;11.60;9.80;;;;;;;10.79;100.00;99258.77;88041;279;24135;-68
2023/10/21 05:56:46;;;;;;;10.40;9.20;;;;;;;10.79;100.00;99265.83;87923;284;136834;-67
2023/10/21 05:58:48;;;;;;;11.10;8.10;;;;;;;10.80;100.00;99269.68;88086;283;22537;-65
2023/10/21 06:00:50;;;;;;;8.60;7.60;;;;;;;10.81;100.00;99273.56;88097;286;138065;-66
2023/10/21 06:02:52;;;;;;;10.10;7.70;;;;;;;10.78;100.00;99274.48;88109;286;25211;-67
2023/10/21 06:04:54;;;;;;;9.70;8.70;;;;;;;10.77;100.00;99273.27;88166;280;136691;-69
2023/10/21 06:06:56;;;;;;;14.70;7.80;;;;;;;10.76;100.00;99281.84;88049;283;25364;-67
2023/10/21 06:08:58;;;;;;;12.00;7.40;;;;;;;10.77;100.00;99284.74;88009;279;137921;-70
2023/10/21 06:11:00;;;;;;;9.10;6.70;;;;;;;10.79;100.00;99284.04;88154;279;22538;-69
2023/10/21 06:13:01;;;;;;;12.00;7.10;;;;;;;10.77;100.00;99285.48;88290;274;136829;-68
2023/10/21 06:15:04;;;;;;;9.80;8.00;;;;;;;10.75;100.00;99286.16;88317;274;23714;-68
2023/10/21 06:17:05;;;;;;;8.90;7.40;;;;;;;10.73;100.00;99294.16;88188;275;136654;-68
2023/10/21 06:19:10;;;;;;;8.70;7.30;;;;;;;10.67;100.00;99284.85;88317;275;24098;-68
2023/10/21 06:21:13;;;;;;;7.80;6.90;;;;;;;10.76;100.00;99302.60;88385;274;136934;-68
2023/10/21 06:23:16;;;;;;;5.90;5.40;;;;;;;10.74;100.00;99301.54;88338;274;22568;-68
2023/10/21 06:25:18;;;;;;;9.00;7.00;;;;;;;10.69;100.00;99306.77;88192;278;136732;-70
2023/10/21 06:27:21;;;;;;;9.40;8.20;;;;;;;10.65;100.00;99311.06;88371;274;22557;-69
2023/10/21 06:29:24;;;;;;;8.20;7.40;;;;;;;10.56;100.00;99298.20;88258;279;136772;-70
2023/10/21 06:31:26;;;;;;;13.50;6.70;;;;;;;10.62;100.00;99315.26;88361;274;22855;-68
2023/10/21 06:33:28;;;;;;;9.50;7.00;;;;;;;10.58;100.00;99315.70;88480;279;136975;-69
2023/10/21 06:35:30;;;;;;;13.50;7.40;;;;;;;10.56;100.00;99323.73;88260;275;25121;-68
2023/10/21 06:37:32;;;;;;;9.10;7.20;;;;;;;10.55;100.00;99328.33;88156;275;136802;-68
2023/10/21 06:39:35;;;;;;;7.30;6.70;;;;;;;10.54;100.00;99334.20;88473;274;25233;-69
2023/10/21 06:41:36;;;;;;;10.40;6.30;;;;;;;10.52;100.00;99332.98;88190;274;138434;-67
2023/10/21 06:43:40;;;;;;;9.10;6.80;;;;;;;10.52;100.00;99334.58;88232;275;22772;-69
2023/10/21 06:45:45;;;;;;;16.80;8.00;;;;;;;10.51;100.00;99340.56;88448;274;136939;-69
2023/10/21 06:47:47;;;;;;;11.50;8.00;;;;;;;10.50;100.00;99341.85;90721;281;22556;-69
2023/10/21 06:49:49;;;;;;;7.80;6.70;;;;;;;10.48;100.00;99343.08;88258;274;137083;-70
2023/10/21 06:51:50;;;;;;;12.10;6.80;;;;;;;10.48;100.00;99342.83;88361;274;22547;-72
2023/10/21 06:53:52;;;;;;;12.40;8.00;;;;;;;10.47;100.00;99340.66;88173;275;137251;-70
2023/10/21 06:55:54;;;;;;;10.90;7.20;;;;;;;10.45;100.00;99346.58;88230;274;22532;-71
2023/10/21 06:57:55;;;;;;;10.10;8.00;;;;;;;10.43;100.00;99350.88;88203;274;138034;-69
2023/10/21 06:59:57;;;;;;;10.20;7.00;;;;;;;10.44;100.00;99350.89;88306;274;24092;-70
2023/10/21 07:01:59;;;;;;;7.50;6.30;;;;;;;10.42;100.00;99354.64;88330;274;136703;-68
2023/10/21 07:04:01;;;;;;;14.10;7.30;;;;;;;10.42;100.00;99361.64;88453;278;24901;-68
2023/10/21 07:06:03;;;;;;;8.50;7.30;;;;;;;10.40;100.00;99362.70;88359;275;22549;-70
2023/10/21 07:08:06;;;;;;;10.70;6.60;;;;;;;10.40;100.00;99358.50;88243;275;137277;-69
2023/10/21 07:10:09;;;;;;;11.20;7.70;;;;;;;10.39;100.00;99364.61;88453;275;23561;-69
2023/10/21 07:12:12;;;;;;;10.60;7.70;;;;;;;10.39;100.00;99373.25;88435;275;138319;-71
2023/10/21 07:14:14;;;;;;;11.60;7.90;;;;;;;10.38;100.00;99368.58;88510;277;22530;-72
2023/10/21 07:16:16;;;;;;;8.60;6.80;;;;;;;10.36;100.00;99362.48;88303;280;138771;-67
2023/10/21 07:18:18;;;;;;;12.20;7.90;;;;;;;10.33;100.00;99353.52;88371;274;22537;-69
2023/10/21 07:20:20;;;;;;;9.90;7.90;;;;;;;10.32;100.00;99356.84;88310;274;137486;-70
2023/10/21 07:22:22;;;;;;;11.40;7.20;;;;;;;10.34;100.00;99365.20;88360;281;22552;-69
2023/10/21 07:24:24;;;;;;;10.70;8.10;;;;;;;10.35;100.00;99374.13;88299;281;138645;-70
2023/10/21 07:26:26;;;;;;;9.40;8.10;;;;;;;10.37;100.00;99396.73;88646;282;22687;-71
2023/10/21 07:28:29;;;;;;;12.70;7.80;;;;;;;10.39;100.00;99405.26;88352;275;136914;-71
2023/10/21 07:30:31;;;;;;;13.80;8.50;;;;;;;10.42;100.00;99419.21;90416;275;22543;-68
2023/10/21 07:32:33;;;;;;;10.50;8.00;;;;;;;10.44;100.00;99436.72;88221;275;137161;-70
2023/10/21 07:34:36;;;;;;;14.90;9.10;;;;;;;10.44;100.00;99435.64;88405;275;24927;-69
2023/10/21 07:36:38;;;;;;;14.00;8.90;;;;;;;10.45;100.00;99435.94;88200;275;137026;-68
2023/10/21 07:38:42;;;;;;;11.60;7.70;;;;;;;10.45;100.00;99433.77;88291;274;23577;-69
2023/10/21 07:40:45;;;;;;;22.50;9.40;;;;;;;10.46;100.00;99431.88;88654;274;137163;-71
2023/10/21 07:42:49;;;;;;;9.00;8.00;;;;;;;10.46;100.00;99420.10;88416;274;22525;-70
2023/10/21 07:44:52;;;;;;;10.90;8.50;;;;;;;10.47;100.00;99417.20;88719;282;137977;-68
2023/10/21 07:46:54;;;;;;;10.30;9.10;;;;;;;10.48;100.00;99425.14;88530;278;22540;-70
2023/10/21 07:48:57;;;;;;;8.30;7.50;;;;;;;10.49;100.00;99428.29;88549;277;136990;-70
2023/10/21 07:50:59;;;;;;;7.60;6.50;;;;;;;10.48;100.00;99425.95;90890;281;25049;-69
2023/10/21 07:53:02;;;;;;;10.90;7.10;;;;;;;10.45;100.00;99424.25;88542;279;136860;-69
2023/10/21 07:55:04;;;;;;;7.20;6.50;;;;;;;10.35;100.00;99415.63;88600;275;22860;-65
2023/10/21 07:57:06;;;;;;;10.20;7.00;;;;;;;10.39;100.00;99426.92;88238;274;138052;-70
2023/10/21 07:59:08;;;;;;;6.80;6.10;;;;;;;10.36;100.00;99427.43;88268;278;22523;-71
2023/10/21 08:01:10;;;;;;;8.70;6.50;;;;;;;10.30;100.00;99427.40;88204;274;136673;-69
2023/10/21 08:03:12;;;;;;;10.50;7.60;;;;;;;10.26;100.00;99438.29;88495;274;22526;-68
2023/10/21 08:05:15;;;;;;;9.70;7.50;;;;;;;10.26;100.00;99456.07;88315;281;137821;-68
2023/10/21 08:07:17;;;;;;;11.00;7.00;;;;;;;10.25;100.00;99467.91;88395;281;26235;-66
2023/10/21 08:09:19;;;;;;;8.30;7.10;;;;;;;10.25;100.00;99473.90;88366;277;137216;-67
2023/10/21 08:11:22;;;;;;;12.70;7.50;;;;;;;10.26;100.00;99475.69;88837;274;22530;-66
2023/10/21 08:13:24;;;;;;;12.60;8.20;;;;;;;10.28;100.00;99481.52;88400;272;139507;-69
2023/10/21 08:15:29;;;;;;;11.90;6.80;;;;;;;10.29;100.00;99483.16;88441;272;22475;-70
2023/10/21 08:17:31;;;;;;;8.90;7.10;;;;;;;10.31;100.00;99487.27;88738;275;138496;-68
2023/10/21 08:19:34;;;;;;;9.80;7.00;;;;;;;10.33;100.00;99487.89;88322;279;22805;-69
2023/10/21 08:21:36;;;;;;;9.00;8.00;;;;;;;10.32;100.00;99492.23;88601;275;138353;-69
2023/10/21 08:23:38;;;;;;;12.50;7.70;;;;;;;10.32;100.00;99500.64;88376;282;25096;-69
2023/10/21 08:25:40;;;;;;;9.30;7.10;;;;;;;10.35;100.00;99494.90;88259;281;138543;-69
2023/10/21 08:27:41;;;;;;;9.40;8.00;;;;;;;10.35;100.00;99495.06;88311;274;24970;-68
2023/10/21 08:29:43;;;;;;;11.60;8.10;;;;;;;10.37;100.00;99493.00;88107;275;138490;-70
2023/10/21 08:31:45;;;;;;;11.30;8.30;;;;;;;10.39;100.00;99490.09;88344;278;22508;-70
2023/10/21 08:33:47;;;;;;;7.90;6.40;;;;;;;10.41;100.00;99485.66;88278;275;138163;-70
2023/10/21 08:35:49;;;;;;;9.60;6.40;;;;;;;10.43;100.00;99484.51;89112;281;22534;-72
2023/10/21 08:37:50;;;;;;;7.80;7.00;;;;;;;10.46;100.00;99494.22;88149;279;136996;-69
2023/10/21 08:39:52;;;;;;;7.80;6.70;;;;;;;10.47;100.00;99500.23;88282;278;25083;-71
2023/10/21 08:41:54;;;;;;;7.50;6.20;;;;;;;10.47;100.00;99509.46;88133;277;137022;-70
2023/10/21 08:43:56;;;;;;;14.80;6.60;;;;;;;10.47;100.00;99518.03;88256;275;23206;-69
2023/10/21 08:45:59;;;;;;;10.50;6.30;;;;;;;10.44;100.00;99525.49;88046;278;136912;-68
2023/10/21 08:48:01;;;;;;;7.60;6.50;;;;;;;10.40;100.00;99525.05;88272;273;25257;-67
2023/10/21 08:50:04;;;;;;;9.70;6.20;;;;;;;10.34;100.00;99534.93;88418;278;22628;-71
2023/10/21 08:52:10;;;;;;;10.80;7.60;;;;;;;10.28;100.00;99538.66;88289;275;137006;-71
2023/10/21 08:54:14;;;;;;;7.60;6.40;;;;;;;10.24;100.00;99536.83;88459;274;22602;-68
2023/10/21 08:56:16;;;;;;;10.90;6.60;;;;;;;10.22;100.00;99533.68;88491;277;138163;-68
2023/10/21 08:58:19;;;;;;;10.50;7.00;;;;;;;10.12;100.00;99523.64;88462;275;25117;-69
2023/10/21 09:00:21;;;;;;;7.00;5.80;;;;;;;10.14;100.00;99534.28;88404;278;137556;-69
2023/10/21 09:02:25;;;;;;;10.30;7.40;;;;;;;10.10;100.00;99530.45;88441;273;22544;-70
2023/10/21 09:04:28;;;;;;;9.30;7.00;;;;;;;10.06;100.00;99533.64;88303;279;136943;-69
2023/10/21 09:06:31;;;;;;;7.00;6.30;;;;;;;10.03;100.00;99536.91;88475;277;24209;-69
2023/10/21 09:08:34;;;;;;;9.40;6.60;;;;;;;10.01;100.00;99544.20;88499;275;136717;-69
2023/10/21 09:10:36;;;;;;;9.60;6.80;;;;;;;9.99;100.00;99538.19;88464;273;25334;-68
2023/10/21 09:12:38;;;;;;;8.40;7.00;;;;;;;9.97;100.00;99546.37;88138;273;136491;-70
2023/10/21 09:14:51;;;;;;;11.00;6.50;;;;;;;9.93;100.00;99550.63;88451;278;22774;-69
2023/10/21 09:16:56;;;;;;;12.40;6.10;;;;;;;9.88;100.00;99551.98;88263;278;138028;-69
2023/10/21 09:19:03;;;;;;;8.00;7.00;;;;;;;9.84;100.00;99548.48;88435;274;22616;-69
2023/10/21 09:21:05;;;;;;;8.00;7.00;;;;;;;9.79;100.00;99547.70;88304;274;138706;-69
2023/10/21 09:23:08;;;;;;;9.60;6.70;;;;;;;9.77;100.00;99554.13;88366;277;22541;-71
2023/10/21 09:25:20;;;;;;;11.30;6.50;;;;;;;9.79;100.00;99554.46;88277;282;136540;-70
2023/10/21 09:27:23;;;;;;;13.20;6.60;;;;;;;9.80;100.00;99555.73;88383;282;25105;-69